createdAt,value
2023-05-04T00:00:27.568Z,16.05
2023-05-04T00:02:54.554Z,16.03
2023-05-04T00:05:21.870Z,16.04
2023-05-04T00:07:48.925Z,16.03
2023-05-04T00:10:16.280Z,16.03
2023-05-04T00:12:43.260Z,16.03
2023-05-04T00:15:10.477Z,16.02
2023-05-04T00:17:38.057Z,16.02
2023-05-04T00:20:06.282Z,16.02
2023-05-04T00:22:33.886Z,16.02
2023-05-04T00:25:01.017Z,16.01
2023-05-04T00:27:28.259Z,16.01
2023-05-04T00:29:55.920Z,16.02
2023-05-04T00:32:23.133Z,16.01
2023-05-04T00:34:50.566Z,15.99
2023-05-04T00:37:17.781Z,15.98
2023-05-04T00:39:45.142Z,16.00
2023-05-04T00:42:12.180Z,16.00
2023-05-04T00:44:41.075Z,15.94
2023-05-04T00:47:08.520Z,15.91
2023-05-04T00:49:35.576Z,15.90
2023-05-04T00:52:02.730Z,15.90
2023-05-04T00:54:29.771Z,15.92
2023-05-04T00:56:56.748Z,15.93
2023-05-04T00:59:23.677Z,15.93
2023-05-04T01:01:50.723Z,15.95
2023-05-04T01:04:18.896Z,15.97
2023-05-04T01:07:00.595Z,16.00
2023-05-04T01:09:33.862Z,16.00
2023-05-04T01:12:11.998Z,16.01
2023-05-04T01:14:38.811Z,15.99
2023-05-04T01:17:06.538Z,15.98
2023-05-04T01:19:34.166Z,15.96
2023-05-04T01:22:02.820Z,15.91
2023-05-04T01:24:30.380Z,15.89
2023-05-04T01:27:09.133Z,15.87
2023-05-04T01:29:43.319Z,15.85
2023-05-04T01:32:11.727Z,15.82
2023-05-04T01:34:38.845Z,15.81
2023-05-04T01:37:06.094Z,15.79
2023-05-04T01:39:33.652Z,15.78
2023-05-04T01:42:02.563Z,15.76
2023-05-04T01:44:29.696Z,15.71
2023-05-04T01:46:56.948Z,15.68
2023-05-04T01:49:23.892Z,15.67
2023-05-04T01:51:51.341Z,15.66
2023-05-04T01:54:18.387Z,15.67
2023-05-04T01:56:45.537Z,15.68
2023-05-04T01:59:12.585Z,15.69
2023-05-04T02:01:41.418Z,15.71
2023-05-04T02:04:08.593Z,15.72
2023-05-04T02:06:38.642Z,15.74
2023-05-04T02:09:05.686Z,15.72
2023-05-04T02:11:33.553Z,15.71
2023-05-04T02:14:00.717Z,15.73
2023-05-04T02:16:27.806Z,15.74
2023-05-04T02:18:55.100Z,15.77
2023-05-04T02:21:22.364Z,15.76
2023-05-04T02:23:49.198Z,15.70
2023-05-04T02:26:17.067Z,15.66
2023-05-04T02:28:44.110Z,15.66
2023-05-04T02:31:11.066Z,15.64
2023-05-04T02:33:38.200Z,15.67
2023-05-04T02:36:05.761Z,15.69
2023-05-04T02:38:32.713Z,15.70
2023-05-04T02:40:59.551Z,15.73
2023-05-04T02:43:26.596Z,15.76
2023-05-04T02:45:53.516Z,15.77
2023-05-04T02:48:20.417Z,15.76
2023-05-04T02:50:47.431Z,15.75
2023-05-04T02:53:14.685Z,15.74
2023-05-04T02:55:41.734Z,15.73
2023-05-04T02:58:08.991Z,15.68
2023-05-04T03:00:36.954Z,15.66
2023-05-04T03:03:04.185Z,15.65
2023-05-04T03:05:33.505Z,15.70
2023-05-04T03:08:00.660Z,15.72
2023-05-04T03:10:27.613Z,15.77
2023-05-04T03:12:54.874Z,15.77
2023-05-04T03:15:22.020Z,15.78
2023-05-04T03:17:49.183Z,15.79
2023-05-04T03:20:16.511Z,15.81
2023-05-04T03:22:43.960Z,15.83
2023-05-04T03:25:11.109Z,15.85
2023-05-04T03:27:38.178Z,15.87
2023-05-04T03:30:06.117Z,15.92
2023-05-04T03:32:34.385Z,15.99
2023-05-04T03:38:23.072Z,16.22
2023-05-04T03:40:50.122Z,16.41
2023-05-04T03:43:17.375Z,16.58
2023-05-04T03:45:44.465Z,16.72
2023-05-04T03:48:11.501Z,16.83
2023-05-04T03:50:38.820Z,16.89
2023-05-04T03:53:06.072Z,16.90
2023-05-04T03:55:33.118Z,16.90
2023-05-04T03:58:00.191Z,16.93
2023-05-04T04:00:27.617Z,16.97
2023-05-04T04:02:58.573Z,17.02
2023-05-04T04:05:26.024Z,17.06
2023-05-04T04:07:53.575Z,17.07
2023-05-04T04:10:20.825Z,17.07
2023-05-04T04:12:47.900Z,17.09
2023-05-04T04:15:15.024Z,17.11
2023-05-04T04:17:42.128Z,17.19
2023-05-04T04:20:10.102Z,17.23
2023-05-04T04:22:37.186Z,17.24
2023-05-04T04:25:05.066Z,17.23
2023-05-04T04:27:32.516Z,17.25
2023-05-04T04:29:59.476Z,17.25
2023-05-04T04:32:26.566Z,17.26
2023-05-04T04:34:53.656Z,17.24
2023-05-04T04:37:20.711Z,17.20
2023-05-04T04:39:47.850Z,17.16
2023-05-04T04:42:14.902Z,17.14
2023-05-04T04:44:41.940Z,17.08
2023-05-04T04:47:09.705Z,17.07
2023-05-04T04:49:36.751Z,17.07
2023-05-04T04:52:04.415Z,17.10
2023-05-04T04:54:32.071Z,17.08
2023-05-04T04:56:59.856Z,17.08
2023-05-04T04:59:26.894Z,17.14
2023-05-04T05:01:54.138Z,17.25
2023-05-04T05:04:22.853Z,17.34
2023-05-04T05:06:49.976Z,17.37
2023-05-04T05:09:17.121Z,17.44
2023-05-04T05:11:44.268Z,17.50
2023-05-04T05:14:11.324Z,17.57
2023-05-04T05:16:38.497Z,17.64
2023-05-04T05:19:05.733Z,17.66
2023-05-04T05:21:32.765Z,17.72
2023-05-04T05:23:59.814Z,17.80
2023-05-04T05:26:27.064Z,17.92
2023-05-04T05:28:54.216Z,18.05
2023-05-04T05:31:22.025Z,18.26
2023-05-04T05:33:49.168Z,18.60
2023-05-04T05:36:16.308Z,18.99
2023-05-04T05:38:43.426Z,19.35
2023-05-04T05:41:10.687Z,19.60
2023-05-04T05:43:38.949Z,19.75
2023-05-04T05:46:06.901Z,19.76
2023-05-04T05:48:34.115Z,19.78
2023-05-04T05:51:01.220Z,19.85
2023-05-04T05:53:28.374Z,20.00
2023-05-04T05:55:55.618Z,20.17
2023-05-04T05:58:22.676Z,20.32
2023-05-04T06:00:49.719Z,20.38
2023-05-04T06:03:16.822Z,20.33
2023-05-04T06:05:44.327Z,20.23
2023-05-04T06:08:11.372Z,20.12
2023-05-04T06:10:38.415Z,19.97
2023-05-04T06:13:05.499Z,19.81
2023-05-04T06:15:32.735Z,19.71
2023-05-04T06:18:00.117Z,19.65
2023-05-04T06:20:27.524Z,19.69
2023-05-04T06:22:54.568Z,19.75
2023-05-04T06:25:22.442Z,19.84
2023-05-04T06:27:49.415Z,19.94
2023-05-04T06:30:16.700Z,20.09
2023-05-04T06:32:43.758Z,20.34
2023-05-04T06:35:10.726Z,20.75
2023-05-04T06:37:37.732Z,21.17
2023-05-04T06:40:05.482Z,21.47
2023-05-04T06:42:32.662Z,21.60
2023-05-04T06:44:59.644Z,21.71
2023-05-04T06:47:26.689Z,21.86
2023-05-04T06:49:53.710Z,22.06
2023-05-04T06:52:20.684Z,22.27
2023-05-04T06:54:47.718Z,22.42
2023-05-04T06:57:15.135Z,22.51
2023-05-04T06:59:42.272Z,22.62
2023-05-04T07:02:09.265Z,22.81
2023-05-04T07:04:36.228Z,23.08
2023-05-04T07:07:03.727Z,23.27
2023-05-04T07:09:30.667Z,23.50
2023-05-04T07:11:57.626Z,23.74
2023-05-04T07:14:24.627Z,23.93
2023-05-04T07:16:51.758Z,23.98
2023-05-04T07:19:18.801Z,23.95
2023-05-04T07:21:45.760Z,23.92
2023-05-04T07:24:12.708Z,23.93
2023-05-04T07:26:39.659Z,23.85
2023-05-04T07:29:06.613Z,23.79
2023-05-04T07:31:35.051Z,23.72
2023-05-04T07:34:02.285Z,23.63
2023-05-04T07:36:29.331Z,23.57
2023-05-04T07:38:56.594Z,23.43
2023-05-04T07:41:23.585Z,23.18
2023-05-04T07:43:50.653Z,22.97
2023-05-04T07:46:17.673Z,22.79
2023-05-04T07:48:44.687Z,22.66
2023-05-04T07:51:15.221Z,22.60
2023-05-04T07:53:43.366Z,22.57
2023-05-04T07:56:12.505Z,22.56
2023-05-04T07:58:39.561Z,22.54
2023-05-04T08:01:06.544Z,22.49
2023-05-04T08:03:33.560Z,22.44
2023-05-04T08:06:00.794Z,22.40
2023-05-04T08:08:27.888Z,22.36
2023-05-04T08:10:56.254Z,22.29
2023-05-04T08:13:29.323Z,22.22
2023-05-04T08:16:01.368Z,22.16
2023-05-04T08:18:28.409Z,22.10
2023-05-04T08:20:55.358Z,22.10
2023-05-04T08:23:22.386Z,22.03
2023-05-04T08:25:49.366Z,21.98
2023-05-04T08:28:16.340Z,21.97
2023-05-04T08:30:43.736Z,21.84
2023-05-04T08:33:10.831Z,21.68
2023-05-04T08:35:38.095Z,21.57
2023-05-04T08:38:05.109Z,21.50
2023-05-04T08:40:33.226Z,21.43
2023-05-04T08:43:00.193Z,21.45
2023-05-04T08:45:27.310Z,21.48
2023-05-04T08:47:54.346Z,21.47
2023-05-04T08:50:21.408Z,21.40
2023-05-04T08:52:49.069Z,21.34
2023-05-04T08:55:17.279Z,21.29
2023-05-04T08:57:44.462Z,21.27
2023-05-04T09:00:12.392Z,21.29
2023-05-04T09:02:39.443Z,21.33
2023-05-04T09:05:08.385Z,21.35
2023-05-04T09:07:35.391Z,21.36
2023-05-04T09:10:03.791Z,21.33
2023-05-04T09:12:31.698Z,21.28
2023-05-04T09:15:02.483Z,21.18
2023-05-04T09:17:29.861Z,21.12
2023-05-04T09:20:03.480Z,21.06
2023-05-04T09:22:30.720Z,21.02
2023-05-04T09:25:08.370Z,20.99
2023-05-04T09:27:35.430Z,20.93
2023-05-04T09:30:02.456Z,20.91
2023-05-04T09:32:30.159Z,20.90
2023-05-04T09:34:57.147Z,20.91
2023-05-04T09:37:24.176Z,20.86
2023-05-04T09:39:53.854Z,20.83
2023-05-04T09:42:21.644Z,20.80
2023-05-04T09:45:08.567Z,20.80
2023-05-04T09:47:40.506Z,20.82
2023-05-04T09:50:20.779Z,20.82
2023-05-04T09:52:48.485Z,20.83
2023-05-04T09:55:16.782Z,20.84
2023-05-04T09:57:45.390Z,20.85
2023-05-04T10:00:13.894Z,20.87
2023-05-04T10:02:41.049Z,20.90
2023-05-04T10:05:09.542Z,20.93
2023-05-04T10:07:37.007Z,20.94
2023-05-04T10:10:04.734Z,20.95
2023-05-04T10:12:31.774Z,20.98
2023-05-04T10:14:58.762Z,21.03
2023-05-04T10:17:28.919Z,21.07
2023-05-04T10:20:27.843Z,21.12
2023-05-04T10:23:16.775Z,21.17
2023-05-04T10:25:58.925Z,21.09
2023-05-04T10:28:45.670Z,21.06
2023-05-04T10:31:12.781Z,21.14
2023-05-04T10:33:42.776Z,21.14
2023-05-04T10:36:10.462Z,21.13
2023-05-04T10:38:39.094Z,21.14
2023-05-04T10:41:16.333Z,21.16
2023-05-04T10:43:48.675Z,21.19
2023-05-04T10:46:19.684Z,21.19
2023-05-04T10:48:46.673Z,21.21
2023-05-04T10:51:20.253Z,21.19
2023-05-04T10:53:48.178Z,21.19
2023-05-04T10:56:24.739Z,21.22
2023-05-04T10:58:51.833Z,21.24
2023-05-04T11:01:19.341Z,21.27
2023-05-04T11:03:46.466Z,21.29
2023-05-04T11:06:23.970Z,21.32
2023-05-04T11:08:59.319Z,21.33
2023-05-04T11:11:26.656Z,21.34
2023-05-04T11:13:53.658Z,21.34
2023-05-04T11:16:27.651Z,21.35
2023-05-04T11:18:54.985Z,21.33
2023-05-04T11:21:27.976Z,21.34
2023-05-04T11:23:58.428Z,21.34
2023-05-04T11:26:25.782Z,21.36
2023-05-04T11:28:52.856Z,21.41
2023-05-04T11:31:21.206Z,21.49
2023-05-04T11:33:51.948Z,21.56
2023-05-04T11:36:19.319Z,21.62
2023-05-04T11:38:47.092Z,21.65
2023-05-04T11:41:14.227Z,21.69
2023-05-04T11:43:42.446Z,21.73
2023-05-04T11:46:09.469Z,21.74
2023-05-04T11:48:36.618Z,21.75
2023-05-04T11:51:04.049Z,21.76
2023-05-04T11:53:40.823Z,21.77
2023-05-04T11:56:09.243Z,21.76
2023-05-04T11:58:36.584Z,21.72
2023-05-04T12:01:04.369Z,21.69
2023-05-04T12:03:51.096Z,21.64
2023-05-04T12:06:30.445Z,21.59
2023-05-04T12:09:02.248Z,21.53
2023-05-04T12:11:29.245Z,21.50
2023-05-04T12:14:07.194Z,21.50
2023-05-04T12:16:34.321Z,21.55
2023-05-04T12:19:03.123Z,21.59
2023-05-04T12:21:30.567Z,21.64
2023-05-04T12:24:00.540Z,21.65
2023-05-04T12:26:27.871Z,21.66
2023-05-04T12:28:54.862Z,21.62
2023-05-04T12:31:23.709Z,21.54
2023-05-04T12:33:52.151Z,21.54
2023-05-04T12:36:19.128Z,21.55
2023-05-04T12:38:46.370Z,21.55
2023-05-04T12:41:13.378Z,21.51
2023-05-04T12:43:40.522Z,21.49
2023-05-04T12:46:07.801Z,21.45
2023-05-04T12:48:35.003Z,21.45
2023-05-04T12:51:04.302Z,21.46
2023-05-04T12:53:32.322Z,21.45
2023-05-04T12:55:59.654Z,21.38
2023-05-04T12:58:26.781Z,21.31
2023-05-04T13:00:53.915Z,21.17
2023-05-04T13:03:21.033Z,21.26
2023-05-04T13:05:49.879Z,21.37
2023-05-04T13:08:17.581Z,21.46
2023-05-04T13:10:46.387Z,21.55
2023-05-04T13:13:15.662Z,21.67
2023-05-04T13:15:43.528Z,21.75
2023-05-04T13:18:10.565Z,21.79
2023-05-04T13:20:38.934Z,21.82
2023-05-04T13:23:05.997Z,21.80
2023-05-04T13:25:33.227Z,21.79
2023-05-04T13:28:00.233Z,21.78
2023-05-04T13:30:27.301Z,21.77
2023-05-04T13:32:54.310Z,21.71
2023-05-04T13:35:21.312Z,21.62
2023-05-04T13:37:48.275Z,21.58
2023-05-04T13:40:15.261Z,21.53
2023-05-04T13:42:42.320Z,21.51
2023-05-04T13:45:09.845Z,21.53
2023-05-04T13:47:37.286Z,21.52
2023-05-04T13:50:04.724Z,21.44
2023-05-04T13:52:32.268Z,21.34
2023-05-04T13:54:59.808Z,21.30
2023-05-04T13:57:29.868Z,21.28
2023-05-04T14:00:05.785Z,21.30
2023-05-04T14:02:40.998Z,21.34
2023-05-04T14:05:08.692Z,21.33
2023-05-04T14:07:36.026Z,21.31
2023-05-04T14:10:03.041Z,21.27
2023-05-04T14:12:30.027Z,21.21
2023-05-04T14:14:59.104Z,21.16
2023-05-04T14:17:26.165Z,21.12
2023-05-04T14:19:53.202Z,21.09
2023-05-04T14:22:20.194Z,21.02
2023-05-04T14:24:47.189Z,21.00
2023-05-04T14:27:14.177Z,20.95
2023-05-04T14:29:41.266Z,20.88
2023-05-04T14:32:08.391Z,20.78
2023-05-04T14:34:36.271Z,20.68
2023-05-04T14:37:03.277Z,20.61
2023-05-04T14:39:30.253Z,20.54
2023-05-04T14:41:58.203Z,20.48
2023-05-04T14:44:26.259Z,20.43
2023-05-04T14:46:53.310Z,20.37
2023-05-04T14:49:35.985Z,20.29
2023-05-04T14:52:04.831Z,20.22
2023-05-04T14:54:32.001Z,20.17
2023-05-04T14:57:00.085Z,20.14
2023-05-04T14:59:27.268Z,20.11
2023-05-04T15:01:55.406Z,20.09
2023-05-04T15:04:22.817Z,20.10
2023-05-04T15:06:49.897Z,20.09
2023-05-04T15:09:16.883Z,20.08
2023-05-04T15:11:43.943Z,20.08
2023-05-04T15:14:11.301Z,20.05
2023-05-04T15:16:38.481Z,20.04
2023-05-04T15:19:05.535Z,20.03
2023-05-04T15:21:32.542Z,20.03
2023-05-04T15:23:59.718Z,20.02
2023-05-04T15:26:26.730Z,20.01
2023-05-04T15:28:54.272Z,20.00
2023-05-04T15:31:21.514Z,20.00
2023-05-04T15:33:51.362Z,20.01
2023-05-04T15:36:18.389Z,20.03
2023-05-04T15:38:45.358Z,20.05
2023-05-04T15:41:14.359Z,20.06
2023-05-04T15:43:41.502Z,20.07
2023-05-04T15:46:08.563Z,20.07
2023-05-04T15:48:35.523Z,20.08
2023-05-04T15:51:02.505Z,20.08
2023-05-04T15:53:29.496Z,20.10
2023-05-04T15:55:56.493Z,20.10
2023-05-04T15:58:23.488Z,20.11
2023-05-04T16:00:50.871Z,20.12
2023-05-04T16:03:18.003Z,20.12
2023-05-04T16:05:45.118Z,20.12
2023-05-04T16:08:12.103Z,20.13
2023-05-04T16:10:39.063Z,20.12
2023-05-04T16:13:06.240Z,20.12
2023-05-04T16:15:33.308Z,20.12
2023-05-04T16:18:00.426Z,20.12
2023-05-04T16:20:28.516Z,20.12
2023-05-04T16:22:55.567Z,20.12
2023-05-04T16:25:22.609Z,20.12
2023-05-04T16:27:49.615Z,20.09
2023-05-04T16:30:17.360Z,20.07
2023-05-04T16:32:44.913Z,20.07
2023-05-04T16:35:12.107Z,20.07
2023-05-04T16:37:39.382Z,20.06
2023-05-04T16:40:14.348Z,20.06
2023-05-04T16:42:42.301Z,20.04
2023-05-04T16:45:11.483Z,20.00
2023-05-04T16:47:38.434Z,19.97
2023-05-04T16:50:06.946Z,19.96
2023-05-04T16:52:34.020Z,19.95
2023-05-04T16:55:01.244Z,19.95
2023-05-04T16:57:28.287Z,19.94
2023-05-04T16:59:55.503Z,19.94
2023-05-04T17:02:22.482Z,19.96
2023-05-04T17:04:49.461Z,19.98
2023-05-04T17:07:16.642Z,19.97
2023-05-04T17:09:43.620Z,19.96
2023-05-04T17:12:10.562Z,19.94
2023-05-04T17:14:37.510Z,19.90
2023-05-04T17:17:04.450Z,19.88
2023-05-04T17:19:32.044Z,19.85
2023-05-04T17:21:58.980Z,19.82
2023-05-04T17:24:25.935Z,19.78
2023-05-04T17:26:53.136Z,19.76
2023-05-04T17:29:20.118Z,19.74
2023-05-04T17:31:47.242Z,19.72
2023-05-04T17:34:14.211Z,19.70
2023-05-04T17:36:41.156Z,19.70
2023-05-04T17:39:08.118Z,19.69
2023-05-04T17:41:35.296Z,19.69
2023-05-04T17:44:02.463Z,19.69
2023-05-04T17:46:29.481Z,19.68
2023-05-04T17:48:56.735Z,19.68
2023-05-04T17:51:23.706Z,19.68
2023-05-04T17:53:50.836Z,19.65
2023-05-04T17:56:19.747Z,19.64
2023-05-04T17:58:46.695Z,19.65
2023-05-04T18:01:13.743Z,19.64
2023-05-04T18:03:41.506Z,19.63
2023-05-04T18:06:08.587Z,19.63
2023-05-04T18:08:35.552Z,19.66
2023-05-04T18:11:02.505Z,19.66
2023-05-04T18:13:29.495Z,19.66
2023-05-04T18:15:56.493Z,19.66
2023-05-04T18:18:23.441Z,19.64
2023-05-04T18:20:50.480Z,19.65
2023-05-04T18:23:17.430Z,19.65
2023-05-04T18:25:44.377Z,19.63
2023-05-04T18:28:11.350Z,19.61
2023-05-04T18:30:38.369Z,19.60
2023-05-04T18:33:05.429Z,19.60
2023-05-04T18:35:32.398Z,19.61
2023-05-04T18:37:59.347Z,19.61
2023-05-04T18:40:26.319Z,19.61
2023-05-04T18:42:53.270Z,19.60
2023-05-04T18:45:20.241Z,19.57
2023-05-04T18:47:47.215Z,19.50
2023-05-04T18:50:14.792Z,19.42
2023-05-04T18:52:41.924Z,19.34
2023-05-04T18:55:09.237Z,19.26
2023-05-04T18:57:36.269Z,19.18
2023-05-04T19:00:06.726Z,19.10
2023-05-04T19:02:34.101Z,19.03
2023-05-04T19:05:01.074Z,18.96
2023-05-04T19:07:28.022Z,18.90
2023-05-04T19:09:55.564Z,18.85
2023-05-04T19:12:22.562Z,18.81
2023-05-04T19:14:50.606Z,18.78
2023-05-04T19:17:18.690Z,18.76
2023-05-04T19:19:45.679Z,18.75
2023-05-04T19:22:13.460Z,18.72
2023-05-04T19:24:40.685Z,18.69
2023-05-04T19:27:08.091Z,18.65
2023-05-04T19:29:35.087Z,18.63
2023-05-04T19:32:11.966Z,18.61
2023-05-04T19:34:43.372Z,18.65
2023-05-04T19:37:10.315Z,18.67
2023-05-04T19:39:37.415Z,18.68
2023-05-04T19:42:04.425Z,18.71
2023-05-04T19:44:31.355Z,18.74
2023-05-04T19:46:58.356Z,18.76
2023-05-04T19:49:25.572Z,18.77
2023-05-04T19:51:52.825Z,18.79
2023-05-04T19:54:19.948Z,18.76
2023-05-04T19:56:46.949Z,18.73
2023-05-04T19:59:13.902Z,18.72
2023-05-04T20:01:40.981Z,18.72
2023-05-04T20:04:08.588Z,18.73
2023-05-04T20:06:36.137Z,18.74
2023-05-04T20:09:04.007Z,18.75
2023-05-04T20:11:31.063Z,18.75
2023-05-04T20:13:58.014Z,18.72
2023-05-04T20:16:24.989Z,18.66
2023-05-04T20:18:52.347Z,18.62
2023-05-04T20:21:19.671Z,18.60
2023-05-04T20:23:46.612Z,18.45
2023-05-04T20:26:13.570Z,18.34
2023-05-04T20:28:40.641Z,18.27
2023-05-04T20:31:08.531Z,18.20
2023-05-04T20:33:36.181Z,18.14
2023-05-04T20:36:03.834Z,18.17
2023-05-04T20:38:30.822Z,18.22
2023-05-04T20:40:57.788Z,18.22
2023-05-04T20:43:24.746Z,18.23
2023-05-04T20:45:53.588Z,18.23
2023-05-04T20:48:20.535Z,18.22
2023-05-04T20:50:47.960Z,18.13
2023-05-04T20:53:15.612Z,18.12
2023-05-04T20:55:43.640Z,18.16
2023-05-04T20:58:10.608Z,18.18
2023-05-04T21:00:37.565Z,18.19
2023-05-04T21:03:04.583Z,18.19
2023-05-04T21:05:31.584Z,18.15
2023-05-04T21:07:58.555Z,18.12
2023-05-04T21:10:25.507Z,18.09
2023-05-04T21:12:52.562Z,18.10
2023-05-04T21:15:19.603Z,18.10
2023-05-04T21:17:49.966Z,18.12
2023-05-04T21:20:17.365Z,18.13
2023-05-04T21:22:44.313Z,18.10
2023-05-04T21:25:11.524Z,18.08
2023-05-04T21:27:38.519Z,18.08
2023-05-04T21:30:08.573Z,18.07
2023-05-04T21:32:35.875Z,18.04
2023-05-04T21:35:04.203Z,18.00
2023-05-04T21:37:31.449Z,17.95
2023-05-04T21:39:58.410Z,17.88
2023-05-04T21:42:25.513Z,17.83
2023-05-04T21:44:58.482Z,17.77
2023-05-04T21:47:25.992Z,17.69
2023-05-04T21:49:53.708Z,17.62
2023-05-04T21:52:21.028Z,17.59
2023-05-04T21:54:47.996Z,17.57
2023-05-04T21:57:14.984Z,17.59
2023-05-04T21:59:41.933Z,17.59
2023-05-04T22:02:09.899Z,17.53
2023-05-04T22:04:37.158Z,17.47
2023-05-04T22:07:04.132Z,17.45
2023-05-04T22:09:31.106Z,17.46
2023-05-04T22:11:58.831Z,17.45
2023-05-04T22:14:25.832Z,17.45
2023-05-04T22:16:53.356Z,17.49
2023-05-04T22:19:20.369Z,17.54
2023-05-04T22:21:47.309Z,17.56
2023-05-04T22:24:14.245Z,17.55
2023-05-04T22:26:41.461Z,17.55
2023-05-04T22:29:08.451Z,17.52
2023-05-04T22:31:35.625Z,17.45
2023-05-04T22:34:02.564Z,17.38
2023-05-04T22:36:29.516Z,17.31
2023-05-04T22:38:56.466Z,17.27
2023-05-04T22:41:23.883Z,17.23
2023-05-04T22:43:50.876Z,17.19
2023-05-04T22:46:17.883Z,17.13
2023-05-04T22:48:48.042Z,17.08
2023-05-04T22:51:15.195Z,17.04
2023-05-04T22:53:42.200Z,17.00
2023-05-04T22:56:09.154Z,16.98
2023-05-04T22:58:36.107Z,16.95
2023-05-04T23:01:03.128Z,16.94
2023-05-04T23:03:30.198Z,16.98
2023-05-04T23:06:00.006Z,17.03
2023-05-04T23:08:26.983Z,17.08
2023-05-04T23:10:53.949Z,17.12
2023-05-04T23:13:20.974Z,17.12
2023-05-04T23:15:48.289Z,17.09
2023-05-04T23:18:15.464Z,17.03
2023-05-04T23:20:42.445Z,16.99
2023-05-04T23:23:09.470Z,16.95
2023-05-04T23:25:36.579Z,16.93
2023-05-04T23:28:03.849Z,16.90
2023-05-04T23:30:30.968Z,16.87
2023-05-04T23:32:58.678Z,16.86
2023-05-04T23:35:27.143Z,16.86
2023-05-04T23:37:54.646Z,16.85
2023-05-04T23:40:21.834Z,16.83
2023-05-04T23:42:50.627Z,16.82
2023-05-04T23:45:17.718Z,16.81
2023-05-04T23:47:44.708Z,16.80
2023-05-04T23:50:11.905Z,16.78
2023-05-04T23:52:38.937Z,16.78
2023-05-04T23:55:06.770Z,16.78
2023-05-04T23:57:33.791Z,16.79
